To NAV CANADA Home Page Login to a new session Search on AWWS site Feedback and Comments Disclaimer Vers la page française équivalente Tips FAQ What's new on the site To the Forecasts and Observations / NOTAM section To "File a Flight Plan" website Publications and other links Update of the User's profile FIC Telephone Numbers My Weather Data Folder Route Weather Data Regional Weather Data Local Weather Data To the Forecasts and Observations / NOTAM section
Request Generated 02/27/2015 at 13:05:43 UTC . Weather information available at that time is displayed.

METAR/TAF

PRINCE ALBERT/PRINCE ALBERT (GLASS FIELD)/SK    

METAR CYPA 271300Z VRB02KT 15SM BKN210 M31/M34 A3018 RMK CI7 SLP271=
METAR CYPA 271200Z VRB02KT 15SM FEW210 M30/M33 A3019 RMK CI2 SLP274=
METAR CYPA 271100Z VRB02KT 15SM FEW210 M28/M31 A3020 RMK CI2 SLP277=

TAF CYPA 271238Z 2713/2801 VRB03KT P6SM FEW210
BECMG 2716/2718 28007KT
RMK NXT FCST BY 271900Z=
Your time UTC time
Weather data provided by Environment Canada and NAV CANADA